createdAt,value
2018-09-02T00:02:20.475Z,99.90
2018-09-02T00:04:47.211Z,99.90
2018-09-02T00:07:13.913Z,99.90
2018-09-02T00:09:39.914Z,99.90
2018-09-02T00:12:05.886Z,99.90
2018-09-02T00:14:31.943Z,99.90
2018-09-02T00:16:57.904Z,99.90
2018-09-02T00:19:23.902Z,99.90
2018-09-02T00:21:49.874Z,99.90
2018-09-02T00:24:15.834Z,99.90
2018-09-02T00:26:42.553Z,99.90
2018-09-02T00:29:08.545Z,99.90
2018-09-02T00:31:34.583Z,99.90
2018-09-02T00:34:00.583Z,99.90
2018-09-02T00:36:26.582Z,99.90
2018-09-02T00:38:52.553Z,99.90
2018-09-02T00:41:18.572Z,99.90
2018-09-02T00:43:44.513Z,99.90
2018-09-02T00:46:10.475Z,99.90
2018-09-02T00:48:36.466Z,99.90
2018-09-02T00:51:03.166Z,99.90
2018-09-02T00:53:29.169Z,99.90
2018-09-02T00:55:55.133Z,99.90
2018-09-02T00:58:21.128Z,99.90
2018-09-02T01:00:47.121Z,99.90
2018-09-02T01:03:13.153Z,99.90
2018-09-02T01:05:39.106Z,99.90
2018-09-02T01:08:05.099Z,99.90
2018-09-02T01:10:31.080Z,99.90
2018-09-02T01:12:57.904Z,99.90
2018-09-02T01:15:24.645Z,99.90
2018-09-02T01:17:50.613Z,99.90
2018-09-02T01:20:16.612Z,99.90
2018-09-02T01:22:43.316Z,99.90
2018-09-02T01:25:09.332Z,99.90
2018-09-02T01:27:35.296Z,99.90
2018-09-02T01:30:02.041Z,99.90
2018-09-02T01:32:28.758Z,99.90
2018-09-02T01:34:54.780Z,99.90
2018-09-02T01:37:20.740Z,99.90
2018-09-02T01:39:47.436Z,99.90
2018-09-02T01:42:13.408Z,99.90
2018-09-02T01:44:39.368Z,99.90
2018-09-02T01:47:05.373Z,99.90
2018-09-02T01:49:31.314Z,99.90
2018-09-02T01:51:57.312Z,99.90
2018-09-02T01:54:23.282Z,99.90
2018-09-02T01:56:49.254Z,99.90
2018-09-02T01:59:15.217Z,99.90
2018-09-02T02:01:41.208Z,99.90
2018-09-02T02:04:07.902Z,99.90
2018-09-02T02:06:34.641Z,99.90
2018-09-02T02:09:01.343Z,99.90
2018-09-02T02:11:27.417Z,99.90
2018-09-02T02:13:54.122Z,99.90
2018-09-02T02:16:20.091Z,99.90
2018-09-02T02:18:46.074Z,99.90
2018-09-02T02:21:12.015Z,99.90
2018-09-02T02:23:37.996Z,99.90
2018-09-02T02:26:03.970Z,99.90
2018-09-02T02:28:30.708Z,99.90
2018-09-02T02:30:57.415Z,99.90
2018-09-02T02:33:23.423Z,99.90
2018-09-02T02:35:49.390Z,99.90
2018-09-02T02:38:15.386Z,99.90
2018-09-02T02:40:41.354Z,99.90
2018-09-02T02:43:08.110Z,99.90
2018-09-02T02:45:34.887Z,99.90
2018-09-02T02:48:01.001Z,99.90
2018-09-02T02:50:26.956Z,99.90
2018-09-02T02:52:52.909Z,99.90
2018-09-02T02:55:19.615Z,99.90
2018-09-02T02:57:45.593Z,99.90
2018-09-02T03:00:11.593Z,99.90
2018-09-02T03:02:37.560Z,99.90
2018-09-02T03:05:03.554Z,99.90
2018-09-02T03:07:29.518Z,99.90
2018-09-02T03:09:55.518Z,99.90
2018-09-02T03:12:21.478Z,99.90
2018-09-02T03:14:48.240Z,99.90
2018-09-02T03:17:14.198Z,99.90
2018-09-02T03:19:40.180Z,99.90
2018-09-02T03:22:06.926Z,99.90
2018-09-02T03:24:32.912Z,99.90
2018-09-02T03:26:58.926Z,99.90
2018-09-02T03:29:24.921Z,99.90
2018-09-02T03:31:50.904Z,99.90
2018-09-02T03:34:17.619Z,99.90
2018-09-02T03:36:43.616Z,99.90
2018-09-02T03:39:09.563Z,99.90
2018-09-02T03:41:35.568Z,99.90
2018-09-02T03:44:01.552Z,99.90
2018-09-02T03:46:27.644Z,99.90
2018-09-02T03:48:53.606Z,99.90
2018-09-02T03:51:19.611Z,99.90
2018-09-02T03:53:46.360Z,99.90
2018-09-02T03:56:12.375Z,99.90
2018-09-02T03:58:38.371Z,99.90
2018-09-02T04:01:04.370Z,99.90
2018-09-02T04:03:30.366Z,99.90
2018-09-02T04:05:57.076Z,99.90
2018-09-02T04:08:23.903Z,99.90
2018-09-02T04:10:49.891Z,99.90
2018-09-02T04:13:15.900Z,99.90
2018-09-02T04:15:41.897Z,99.90
2018-09-02T04:18:07.879Z,99.90
2018-09-02T04:20:33.870Z,99.90
2018-09-02T04:22:59.850Z,99.90
2018-09-02T04:25:25.807Z,99.90
2018-09-02T04:27:52.498Z,99.90
2018-09-02T04:30:18.511Z,99.90
2018-09-02T04:32:44.529Z,99.90
2018-09-02T04:35:10.513Z,99.90
2018-09-02T04:37:36.469Z,99.90
2018-09-02T04:40:02.461Z,99.90
2018-09-02T04:42:28.434Z,99.90
2018-09-02T04:44:54.392Z,99.90
2018-09-02T04:47:21.102Z,99.90
2018-09-02T04:49:47.115Z,99.90
2018-09-02T04:52:13.062Z,99.90
2018-09-02T04:54:39.016Z,99.90
2018-09-02T04:57:05.014Z,99.90
2018-09-02T04:59:31.719Z,99.90
2018-09-02T05:01:57.732Z,99.90
2018-09-02T05:04:23.697Z,99.90
2018-09-02T05:06:49.679Z,99.90
2018-09-02T05:09:15.628Z,99.90
2018-09-02T05:11:41.596Z,99.90
2018-09-02T05:14:07.640Z,99.90
2018-09-02T05:16:33.590Z,99.90
2018-09-02T05:18:59.588Z,99.90
2018-09-02T05:21:25.582Z,99.90
2018-09-02T05:23:51.585Z,99.90
2018-09-02T05:26:18.303Z,99.90
2018-09-02T05:28:44.375Z,99.90
2018-09-02T05:31:11.068Z,99.90
2018-09-02T05:33:37.025Z,99.90
2018-09-02T05:36:03.016Z,99.90
2018-09-02T05:38:28.969Z,99.90
2018-09-02T05:40:54.976Z,99.90
2018-09-02T05:43:20.940Z,99.90
2018-09-02T05:45:46.924Z,99.90
2018-09-02T05:48:13.653Z,99.90
2018-09-02T05:50:39.677Z,99.90
2018-09-02T05:53:05.653Z,99.90
2018-09-02T05:55:31.601Z,99.90
2018-09-02T05:57:57.606Z,99.90
2018-09-02T06:00:23.590Z,99.90
2018-09-02T06:02:50.330Z,99.90
2018-09-02T06:05:17.050Z,99.90
2018-09-02T06:07:43.039Z,99.90
2018-09-02T06:10:09.000Z,99.90
2018-09-02T06:12:34.983Z,99.90
2018-09-02T06:15:00.944Z,99.90
2018-09-02T06:17:26.975Z,99.90
2018-09-02T06:19:52.912Z,99.90
2018-09-02T06:22:18.920Z,99.90
2018-09-02T06:24:44.863Z,99.90
2018-09-02T06:27:10.865Z,99.90
2018-09-02T06:29:36.812Z,99.90
2018-09-02T06:32:02.892Z,99.90
2018-09-02T06:34:28.836Z,99.90
2018-09-02T06:36:54.784Z,99.90
2018-09-02T06:39:20.796Z,99.90
2018-09-02T06:41:47.493Z,99.90
2018-09-02T06:44:13.458Z,99.90
2018-09-02T06:46:40.157Z,99.90
2018-09-02T06:49:06.143Z,99.90
2018-09-02T06:51:32.108Z,99.90
2018-09-02T06:53:58.198Z,99.90
2018-09-02T06:56:24.171Z,99.90
2018-09-02T06:58:50.136Z,99.90
2018-09-02T07:01:16.130Z,99.90
2018-09-02T07:03:42.837Z,99.90
2018-09-02T07:06:08.878Z,99.90
2018-09-02T07:08:34.850Z,99.90
2018-09-02T07:11:00.846Z,99.90
2018-09-02T07:13:26.827Z,99.90
2018-09-02T07:15:52.817Z,99.90
2018-09-02T07:18:18.810Z,99.90
2018-09-02T07:20:44.830Z,99.90
2018-09-02T07:23:10.824Z,99.90
2018-09-02T07:25:37.662Z,99.60
2018-09-02T07:28:03.637Z,99.60
2018-09-02T07:30:29.606Z,98.80
2018-09-02T07:32:55.605Z,98.20
2018-09-02T07:35:21.590Z,96.90
2018-09-02T07:37:48.342Z,95.70
2018-09-02T07:40:14.308Z,95.70
2018-09-02T07:42:40.279Z,95.50
2018-09-02T07:45:06.260Z,95.40
2018-09-02T07:47:32.265Z,94.70
2018-09-02T07:49:58.265Z,94.80
2018-09-02T07:52:24.258Z,93.90
2018-09-02T07:54:50.280Z,93.60
2018-09-02T07:57:17.004Z,92.90
2018-09-02T07:59:42.980Z,92.90
2018-09-02T08:02:08.951Z,92.40
2018-09-02T08:04:34.942Z,92.40
2018-09-02T08:07:00.944Z,91.30
2018-09-02T08:09:26.933Z,90.80
2018-09-02T08:11:52.926Z,91.00
2018-09-02T08:14:18.989Z,90.50
2018-09-02T08:16:45.754Z,89.20
2018-09-02T08:19:11.724Z,89.30
2018-09-02T08:21:37.728Z,88.90
2018-09-02T08:24:03.708Z,87.20
2018-09-02T08:26:29.733Z,88.50
2018-09-02T08:28:56.436Z,84.20
2018-09-02T08:31:22.439Z,84.10
2018-09-02T08:33:48.440Z,82.80
2018-09-02T08:36:14.465Z,84.00
2018-09-02T08:38:40.500Z,83.20
2018-09-02T08:41:06.497Z,83.40
2018-09-02T08:43:32.538Z,83.10
2018-09-02T08:45:58.479Z,84.80
2018-09-02T08:48:24.472Z,80.90
2018-09-02T08:50:50.463Z,79.80
2018-09-02T08:53:16.464Z,78.10
2018-09-02T08:55:42.436Z,77.10
2018-09-02T08:58:09.200Z,76.80
2018-09-02T09:00:35.169Z,76.90
2018-09-02T09:03:01.151Z,77.10
2018-09-02T09:05:27.146Z,76.90
2018-09-02T09:07:54.074Z,77.70
2018-09-02T09:10:19.916Z,77.50
2018-09-02T09:12:45.906Z,76.90
2018-09-02T09:15:18.813Z,76.90
2018-09-02T09:17:44.817Z,75.40
2018-09-02T09:20:10.869Z,73.30
2018-09-02T09:22:36.899Z,72.70
2018-09-02T09:25:03.660Z,73.80
2018-09-02T09:27:29.634Z,73.80
2018-09-02T09:29:55.661Z,73.60
2018-09-02T09:32:21.706Z,72.10
2018-09-02T09:34:47.646Z,74.80
2018-09-02T09:37:13.610Z,72.50
2018-09-02T09:39:39.598Z,72.30
2018-09-02T09:42:05.560Z,69.70
2018-09-02T09:44:31.549Z,71.60
2018-09-02T09:46:57.564Z,73.40
2018-09-02T09:49:23.527Z,68.90
2018-09-02T09:51:49.514Z,67.70
2018-09-02T09:54:15.493Z,66.80
2018-09-02T09:56:42.210Z,67.60
2018-09-02T09:59:08.172Z,67.60
2018-09-02T10:01:34.233Z,70.00
2018-09-02T10:04:00.166Z,69.20
2018-09-02T10:06:26.151Z,73.10
2018-09-02T10:08:52.148Z,71.80
2018-09-02T10:11:18.132Z,70.90
2018-09-02T10:13:44.136Z,70.30
2018-09-02T10:16:10.104Z,71.40
2018-09-02T10:18:36.814Z,70.00
2018-09-02T10:21:02.939Z,69.80
2018-09-02T10:23:29.713Z,73.00
2018-09-02T10:25:55.747Z,72.90
2018-09-02T10:28:21.735Z,69.80
2018-09-02T10:30:47.678Z,73.30
2018-09-02T10:33:13.796Z,77.60
2018-09-02T10:35:40.168Z,77.40
2018-09-02T10:38:06.136Z,74.60
2018-09-02T10:40:32.114Z,75.60
2018-09-02T10:42:58.131Z,76.10
2018-09-02T10:45:24.111Z,77.70
2018-09-02T10:47:50.077Z,80.10
2018-09-02T10:50:16.065Z,78.10
2018-09-02T10:52:42.041Z,78.30
2018-09-02T10:55:08.042Z,75.80
2018-09-02T10:57:34.784Z,77.50
2018-09-02T11:00:01.529Z,77.20
2018-09-02T11:02:28.222Z,79.80
2018-09-02T11:04:54.166Z,79.80
2018-09-02T11:07:20.144Z,77.60
2018-09-02T11:09:46.167Z,78.80
2018-09-02T11:12:12.149Z,80.00
2018-09-02T11:14:38.884Z,79.40
2018-09-02T11:17:04.919Z,79.30
2018-09-02T11:19:30.943Z,78.50
2018-09-02T11:21:57.664Z,77.30
2018-09-02T11:24:23.636Z,77.30
2018-09-02T11:26:49.784Z,73.80
2018-09-02T11:29:15.762Z,77.60
2018-09-02T11:31:41.734Z,77.70
2018-09-02T11:34:07.854Z,77.80
2018-09-02T11:36:33.787Z,81.90
2018-09-02T11:39:00.557Z,77.70
2018-09-02T11:41:27.309Z,77.40
2018-09-02T11:43:54.040Z,77.70
2018-09-02T11:46:20.001Z,77.70
2018-09-02T11:48:45.997Z,79.10
2018-09-02T11:51:12.001Z,78.40
2018-09-02T11:53:38.744Z,80.40
2018-09-02T11:56:04.699Z,80.40
2018-09-02T11:58:30.674Z,76.40
2018-09-02T12:00:56.666Z,76.00
2018-09-02T12:03:22.636Z,81.20
2018-09-02T12:05:49.408Z,79.60
2018-09-02T12:08:15.401Z,79.50
2018-09-02T12:10:42.194Z,77.10
2018-09-02T12:13:08.198Z,76.90
2018-09-02T12:15:34.248Z,76.80
2018-09-02T12:18:00.234Z,78.40
2018-09-02T12:20:26.241Z,76.20
2018-09-02T12:22:52.951Z,75.00
2018-09-02T12:25:18.953Z,75.00
2018-09-02T12:27:44.931Z,78.50
2018-09-02T12:30:10.948Z,77.50
2018-09-02T12:32:37.656Z,79.70
2018-09-02T12:35:03.651Z,79.80
2018-09-02T12:37:31.866Z,81.40
2018-09-02T12:39:58.253Z,83.30
2018-09-02T12:42:24.233Z,82.70
2018-09-02T12:44:50.207Z,83.80
2018-09-02T12:47:16.197Z,84.30
2018-09-02T12:49:42.172Z,84.00
2018-09-02T12:52:08.189Z,82.50
2018-09-02T12:54:34.155Z,81.00
2018-09-02T12:57:00.102Z,82.30
2018-09-02T12:59:26.062Z,84.20
2018-09-02T13:01:52.070Z,85.20
2018-09-02T13:04:18.047Z,82.00
2018-09-02T13:06:44.759Z,83.90
2018-09-02T13:09:10.749Z,83.90
2018-09-02T13:11:36.741Z,81.40
2018-09-02T13:14:03.466Z,82.80
2018-09-02T13:16:29.439Z,82.70
2018-09-02T13:18:55.481Z,83.90
2018-09-02T13:21:22.233Z,84.90
2018-09-02T13:23:48.267Z,84.80
2018-09-02T13:26:14.287Z,83.00
2018-09-02T13:28:41.480Z,84.10
2018-09-02T13:31:07.456Z,84.30
2018-09-02T13:33:33.454Z,86.10
2018-09-02T13:35:59.449Z,86.20
2018-09-02T13:38:25.431Z,85.60
2018-09-02T13:40:51.403Z,85.80
2018-09-02T13:43:17.407Z,83.50
2018-09-02T13:45:43.384Z,84.20
2018-09-02T13:48:09.351Z,82.60
2018-09-02T13:50:36.110Z,82.30
2018-09-02T13:53:02.083Z,82.30
2018-09-02T13:55:28.090Z,83.30
2018-09-02T13:57:54.082Z,82.80
2018-09-02T14:00:20.959Z,84.40
2018-09-02T14:02:48.052Z,85.10
2018-09-02T14:05:14.781Z,86.10
2018-09-02T14:07:40.755Z,86.10
2018-09-02T14:10:07.012Z,86.30
2018-09-02T14:12:32.976Z,86.90
2018-09-02T14:14:58.942Z,87.90
2018-09-02T14:17:24.948Z,86.40
2018-09-02T14:19:50.952Z,86.10
2018-09-02T14:22:16.997Z,87.40
2018-09-02T14:24:43.065Z,86.90
2018-09-02T14:27:09.060Z,87.60
2018-09-02T14:29:35.033Z,87.50
2018-09-02T14:32:01.021Z,85.30
2018-09-02T14:34:26.990Z,85.70
2018-09-02T14:36:53.712Z,87.10
2018-09-02T14:39:20.392Z,88.40
2018-09-02T14:41:46.372Z,88.40
2018-09-02T14:44:13.097Z,90.70
2018-09-02T14:46:39.083Z,90.60
2018-09-02T14:49:05.053Z,91.10
2018-09-02T14:51:31.053Z,90.70
2018-09-02T14:53:57.058Z,90.50
2018-09-02T14:56:23.043Z,90.80
2018-09-02T14:58:49.061Z,90.20
2018-09-02T15:01:15.773Z,92.50
2018-09-02T15:03:41.794Z,92.50
2018-09-02T15:06:07.749Z,91.20
2018-09-02T15:08:34.693Z,91.50
2018-09-02T15:11:01.394Z,90.80
2018-09-02T15:13:27.398Z,90.80
2018-09-02T15:15:53.344Z,90.50
2018-09-02T15:18:19.374Z,90.90
2018-09-02T15:20:45.356Z,90.60
2018-09-02T15:23:11.324Z,91.00
2018-09-02T15:25:38.083Z,91.40
2018-09-02T15:28:04.815Z,91.90
2018-09-02T15:30:31.546Z,91.60
2018-09-02T15:32:57.525Z,91.60
2018-09-02T15:35:23.496Z,91.10
2018-09-02T15:37:49.471Z,91.40
2018-09-02T15:40:15.467Z,91.70
2018-09-02T15:42:41.467Z,91.00
2018-09-02T15:45:07.426Z,90.90
2018-09-02T15:47:33.413Z,91.30
2018-09-02T15:49:59.362Z,92.00
2018-09-02T15:52:25.391Z,91.50
2018-09-02T15:54:52.118Z,91.80
2018-09-02T15:57:18.815Z,91.60
2018-09-02T15:59:44.786Z,91.50
2018-09-02T16:02:10.789Z,91.90
2018-09-02T16:04:36.760Z,92.70
2018-09-02T16:07:02.706Z,92.30
2018-09-02T16:09:28.686Z,92.30
2018-09-02T16:11:54.675Z,91.40
2018-09-02T16:14:20.667Z,92.30
2018-09-02T16:16:46.620Z,91.40
2018-09-02T16:19:13.390Z,89.50
2018-09-02T16:21:39.411Z,89.50
2018-09-02T16:24:05.376Z,89.70
2018-09-02T16:26:31.389Z,88.90
2018-09-02T16:28:57.353Z,89.30
2018-09-02T16:31:23.353Z,89.10
2018-09-02T16:33:49.350Z,88.20
2018-09-02T16:36:15.343Z,89.40
2018-09-02T16:38:41.330Z,89.20
2018-09-02T16:41:07.350Z,90.80
2018-09-02T16:43:33.357Z,90.90
2018-09-02T16:45:59.357Z,90.00
2018-09-02T16:48:25.341Z,91.10
2018-09-02T16:50:52.056Z,90.90
2018-09-02T16:53:18.050Z,90.90
2018-09-02T16:55:43.996Z,91.20
2018-09-02T16:58:09.967Z,92.20
2018-09-02T17:00:36.671Z,93.00
2018-09-02T17:03:02.638Z,92.90
2018-09-02T17:05:28.638Z,92.20
2018-09-02T17:07:55.338Z,91.70
2018-09-02T17:10:21.328Z,91.70
2018-09-02T17:12:47.357Z,91.20
2018-09-02T17:15:14.071Z,91.20
2018-09-02T17:17:40.779Z,92.00
2018-09-02T17:20:06.784Z,91.90
2018-09-02T17:22:32.741Z,91.80
2018-09-02T17:24:58.741Z,93.90
2018-09-02T17:27:24.716Z,94.50
2018-09-02T17:29:51.455Z,94.60
2018-09-02T17:32:17.431Z,94.60
2018-09-02T17:34:43.433Z,93.80
2018-09-02T17:37:09.400Z,95.00
2018-09-02T17:39:35.402Z,96.10
2018-09-02T17:42:01.389Z,96.10
2018-09-02T17:44:27.419Z,97.10
2018-09-02T17:46:53.412Z,96.70
2018-09-02T17:49:19.397Z,97.90
2018-09-02T17:51:45.390Z,98.30
2018-09-02T17:54:11.344Z,98.40
2018-09-02T17:56:37.359Z,98.50
2018-09-02T17:59:03.346Z,98.30
2018-09-02T18:01:29.341Z,97.10
2018-09-02T18:03:56.087Z,99.30
2018-09-02T18:06:22.792Z,99.90
2018-09-02T18:08:48.765Z,99.90
2018-09-02T18:11:14.766Z,99.90
2018-09-02T18:13:40.733Z,99.90
2018-09-02T18:16:06.712Z,99.90
2018-09-02T18:18:33.424Z,99.90
2018-09-02T18:20:59.370Z,99.90
2018-09-02T18:23:26.091Z,99.90
2018-09-02T18:25:52.074Z,99.90
2018-09-02T18:28:18.045Z,99.90
2018-09-02T18:30:44.006Z,99.90
2018-09-02T18:33:09.989Z,99.90
2018-09-02T18:35:35.954Z,99.90
2018-09-02T18:38:01.922Z,99.90
2018-09-02T18:40:27.916Z,99.90
2018-09-02T18:42:53.896Z,99.90
2018-09-02T18:45:20.643Z,99.90
2018-09-02T18:47:47.345Z,99.90
2018-09-02T18:50:13.340Z,99.90
2018-09-02T18:52:39.303Z,99.90
2018-09-02T18:55:05.290Z,99.90
2018-09-02T18:57:31.296Z,99.90
2018-09-02T18:59:57.294Z,99.90
2018-09-02T19:02:23.252Z,99.90
2018-09-02T19:04:49.976Z,99.90
2018-09-02T19:07:15.950Z,99.90
2018-09-02T19:09:41.942Z,99.90
2018-09-02T19:12:07.928Z,99.90
2018-09-02T19:14:34.652Z,99.90
2018-09-02T19:17:01.398Z,99.90
2018-09-02T19:19:27.351Z,99.90
2018-09-02T19:21:53.334Z,99.90
2018-09-02T19:24:19.302Z,99.90
2018-09-02T19:26:45.288Z,99.90
2018-09-02T19:29:11.251Z,99.90
2018-09-02T19:31:37.238Z,99.90
2018-09-02T19:34:03.168Z,99.90
2018-09-02T19:36:29.137Z,99.90
2018-09-02T19:38:55.122Z,99.90
2018-09-02T19:41:21.077Z,99.90
2018-09-02T19:43:47.069Z,99.90
2018-09-02T19:46:13.045Z,99.90
2018-09-02T19:48:39.122Z,99.90
2018-09-02T19:51:05.089Z,99.90
2018-09-02T19:53:31.173Z,99.90
2018-09-02T19:55:57.201Z,99.90
2018-09-02T19:58:23.165Z,99.90
2018-09-02T20:00:49.194Z,99.90
2018-09-02T20:03:15.134Z,99.90
2018-09-02T20:05:41.101Z,99.90
2018-09-02T20:08:07.050Z,99.90
2018-09-02T20:10:33.031Z,99.90
2018-09-02T20:12:59.009Z,99.90
2018-09-02T20:15:24.999Z,99.90
2018-09-02T20:17:50.966Z,99.90
2018-09-02T20:20:16.944Z,99.90
2018-09-02T20:22:42.938Z,99.90
2018-09-02T20:25:08.912Z,99.90
2018-09-02T20:27:34.890Z,99.90
2018-09-02T20:30:01.604Z,99.90
2018-09-02T20:32:27.587Z,99.90
2018-09-02T20:34:53.548Z,99.90
2018-09-02T20:37:20.299Z,99.90
2018-09-02T20:39:46.996Z,99.90
2018-09-02T20:42:12.945Z,99.90
2018-09-02T20:44:38.939Z,99.90
2018-09-02T20:47:04.904Z,99.90
2018-09-02T20:49:31.760Z,99.90
2018-09-02T20:51:57.714Z,99.90
2018-09-02T20:54:23.698Z,99.90
2018-09-02T20:56:50.395Z,99.90
2018-09-02T20:59:16.374Z,99.90
2018-09-02T21:01:42.339Z,99.90
2018-09-02T21:04:08.312Z,99.90
2018-09-02T21:06:34.332Z,99.90
2018-09-02T21:09:01.077Z,99.90
2018-09-02T21:11:27.079Z,99.90
2018-09-02T21:13:53.029Z,99.90
2018-09-02T21:16:19.745Z,99.90
2018-09-02T21:18:45.720Z,99.90
2018-09-02T21:21:11.710Z,99.90
2018-09-02T21:23:37.668Z,99.90
2018-09-02T21:26:03.629Z,99.90
2018-09-02T21:28:30.346Z,99.90
2018-09-02T21:30:56.301Z,99.90
2018-09-02T21:33:23.026Z,99.90
2018-09-02T21:35:48.978Z,99.90
2018-09-02T21:38:15.000Z,99.90
2018-09-02T21:40:41.693Z,99.90
2018-09-02T21:43:07.704Z,99.90
2018-09-02T21:45:33.666Z,99.90
2018-09-02T21:48:00.388Z,99.90
2018-09-02T21:50:26.344Z,99.90
2018-09-02T21:52:53.041Z,99.90
2018-09-02T21:55:19.078Z,99.90
2018-09-02T21:57:45.117Z,99.90
2018-09-02T22:00:11.895Z,99.90
2018-09-02T22:02:38.670Z,99.90
2018-09-02T22:05:04.660Z,99.90
2018-09-02T22:07:30.649Z,99.90
2018-09-02T22:09:56.686Z,99.90
2018-09-02T22:12:23.497Z,99.90
2018-09-02T22:14:49.562Z,99.90
2018-09-02T22:17:15.558Z,99.90
2018-09-02T22:19:41.546Z,99.90
2018-09-02T22:22:07.513Z,99.90
2018-09-02T22:24:33.499Z,99.90
2018-09-02T22:26:59.447Z,99.90
2018-09-02T22:29:25.476Z,99.90
2018-09-02T22:31:51.490Z,99.90
2018-09-02T22:34:17.478Z,99.90
2018-09-02T22:36:43.466Z,99.90
2018-09-02T22:39:10.150Z,99.90
2018-09-02T22:41:36.130Z,99.90
2018-09-02T22:44:02.086Z,99.90
2018-09-02T22:46:28.072Z,99.90
2018-09-02T22:48:54.762Z,99.90
2018-09-02T22:51:20.746Z,99.90
2018-09-02T22:53:46.701Z,99.90
2018-09-02T22:56:12.685Z,99.90
2018-09-02T22:58:38.646Z,99.90
2018-09-02T23:01:04.608Z,99.90
2018-09-02T23:03:31.341Z,99.90
2018-09-02T23:05:57.296Z,99.90
2018-09-02T23:08:23.284Z,99.90
2018-09-02T23:10:49.249Z,99.90
2018-09-02T23:13:15.230Z,99.90
2018-09-02T23:15:41.197Z,99.90
2018-09-02T23:18:07.202Z,99.90
2018-09-02T23:20:33.152Z,99.90
2018-09-02T23:22:59.134Z,99.90
2018-09-02T23:25:25.824Z,99.90
2018-09-02T23:27:51.777Z,99.90
2018-09-02T23:30:17.775Z,99.90
2018-09-02T23:32:43.756Z,99.90
2018-09-02T23:35:10.491Z,99.90
2018-09-02T23:37:36.461Z,99.90
2018-09-02T23:40:02.439Z,99.90
2018-09-02T23:42:28.405Z,99.90
2018-09-02T23:44:54.393Z,99.90
2018-09-02T23:47:20.351Z,99.90
2018-09-02T23:49:46.321Z,99.90
2018-09-02T23:52:12.290Z,99.90
2018-09-02T23:54:38.267Z,99.90
2018-09-02T23:57:04.239Z,99.90
2018-09-02T23:59:30.236Z,99.90
